sensor_id;sensor_type;location;lat;lon;timestamp;P1;durP1;ratioP1;P2;durP2;ratioP2
76065;SDS011;64763;48.928;8.474;2023-09-30T00:01:41;5.60;;;2.47;;
76065;SDS011;64763;48.928;8.474;2023-09-30T00:04:06;3.40;;;1.70;;
76065;SDS011;64763;48.928;8.474;2023-09-30T00:06:32;4.63;;;2.15;;
76065;SDS011;64763;48.928;8.474;2023-09-30T00:08:57;4.00;;;2.10;;
76065;SDS011;64763;48.928;8.474;2023-09-30T00:11:23;3.90;;;2.10;;
76065;SDS011;64763;48.928;8.474;2023-09-30T00:13:48;4.30;;;2.17;;
76065;SDS011;64763;48.928;8.474;2023-09-30T00:16:14;3.55;;;1.92;;
76065;SDS011;64763;48.928;8.474;2023-09-30T00:18:42;4.20;;;1.90;;
76065;SDS011;64763;48.928;8.474;2023-09-30T00:21:11;5.60;;;2.67;;
76065;SDS011;64763;48.928;8.474;2023-09-30T00:23:37;4.43;;;2.00;;
76065;SDS011;64763;48.928;8.474;2023-09-30T00:26:03;4.15;;;2.28;;
76065;SDS011;64763;48.928;8.474;2023-09-30T00:28:28;5.65;;;2.42;;
76065;SDS011;64763;48.928;8.474;2023-09-30T00:30:53;4.20;;;2.15;;
76065;SDS011;64763;48.928;8.474;2023-09-30T00:33:19;4.28;;;2.17;;
76065;SDS011;64763;48.928;8.474;2023-09-30T00:35:44;3.80;;;1.92;;
76065;SDS011;64763;48.928;8.474;2023-09-30T00:38:10;4.88;;;2.05;;
76065;SDS011;64763;48.928;8.474;2023-09-30T00:40:35;4.18;;;2.22;;
76065;SDS011;64763;48.928;8.474;2023-09-30T00:43:00;4.47;;;2.88;;
76065;SDS011;64763;48.928;8.474;2023-09-30T00:45:26;5.47;;;2.20;;
76065;SDS011;64763;48.928;8.474;2023-09-30T00:47:52;7.10;;;2.40;;
76065;SDS011;64763;48.928;8.474;2023-09-30T00:50:19;4.25;;;1.90;;
76065;SDS011;64763;48.928;8.474;2023-09-30T00:52:45;4.53;;;2.22;;
76065;SDS011;64763;48.928;8.474;2023-09-30T00:55:10;4.57;;;2.22;;
76065;SDS011;64763;48.928;8.474;2023-09-30T00:57:36;5.88;;;2.20;;
76065;SDS011;64763;48.928;8.474;2023-09-30T01:00:02;5.45;;;2.42;;
76065;SDS011;64763;48.928;8.474;2023-09-30T01:02:28;4.40;;;1.98;;
76065;SDS011;64763;48.928;8.474;2023-09-30T01:04:53;4.90;;;2.20;;
76065;SDS011;64763;48.928;8.474;2023-09-30T01:07:20;6.00;;;2.15;;
76065;SDS011;64763;48.928;8.474;2023-09-30T01:09:47;4.70;;;2.38;;
76065;SDS011;64763;48.928;8.474;2023-09-30T01:12:12;4.93;;;2.33;;
76065;SDS011;64763;48.928;8.474;2023-09-30T01:14:38;4.70;;;2.58;;
76065;SDS011;64763;48.928;8.474;2023-09-30T01:17:05;4.40;;;2.30;;
76065;SDS011;64763;48.928;8.474;2023-09-30T01:19:33;3.97;;;2.20;;
76065;SDS011;64763;48.928;8.474;2023-09-30T01:21:59;4.68;;;2.08;;
76065;SDS011;64763;48.928;8.474;2023-09-30T01:24:27;3.75;;;2.10;;
76065;SDS011;64763;48.928;8.474;2023-09-30T01:26:53;4.80;;;2.30;;
76065;SDS011;64763;48.928;8.474;2023-09-30T01:29:19;6.30;;;2.63;;
76065;SDS011;64763;48.928;8.474;2023-09-30T01:31:45;4.93;;;2.30;;
76065;SDS011;64763;48.928;8.474;2023-09-30T01:34:13;5.18;;;2.35;;
76065;SDS011;64763;48.928;8.474;2023-09-30T01:36:38;4.85;;;2.53;;
76065;SDS011;64763;48.928;8.474;2023-09-30T01:39:04;5.57;;;2.60;;
76065;SDS011;64763;48.928;8.474;2023-09-30T01:41:29;5.45;;;2.40;;
76065;SDS011;64763;48.928;8.474;2023-09-30T01:43:54;4.45;;;2.53;;
76065;SDS011;64763;48.928;8.474;2023-09-30T01:46:20;6.10;;;2.70;;
76065;SDS011;64763;48.928;8.474;2023-09-30T01:48:45;5.10;;;2.30;;
76065;SDS011;64763;48.928;8.474;2023-09-30T01:51:10;4.97;;;2.40;;
76065;SDS011;64763;48.928;8.474;2023-09-30T01:53:36;4.13;;;2.15;;
76065;SDS011;64763;48.928;8.474;2023-09-30T01:56:01;4.43;;;2.28;;
76065;SDS011;64763;48.928;8.474;2023-09-30T01:58:27;5.72;;;2.50;;
76065;SDS011;64763;48.928;8.474;2023-09-30T02:00:52;6.28;;;2.50;;
76065;SDS011;64763;48.928;8.474;2023-09-30T02:03:18;4.57;;;2.60;;
76065;SDS011;64763;48.928;8.474;2023-09-30T02:05:43;8.82;;;2.90;;
76065;SDS011;64763;48.928;8.474;2023-09-30T02:08:08;3.58;;;2.35;;
76065;SDS011;64763;48.928;8.474;2023-09-30T02:10:34;5.82;;;2.60;;
76065;SDS011;64763;48.928;8.474;2023-09-30T02:12:59;4.07;;;2.30;;
76065;SDS011;64763;48.928;8.474;2023-09-30T02:15:25;4.82;;;2.50;;
76065;SDS011;64763;48.928;8.474;2023-09-30T02:17:51;4.68;;;2.38;;
76065;SDS011;64763;48.928;8.474;2023-09-30T02:20:16;5.85;;;2.42;;
76065;SDS011;64763;48.928;8.474;2023-09-30T02:22:44;5.65;;;2.47;;
76065;SDS011;64763;48.928;8.474;2023-09-30T02:25:11;6.30;;;2.72;;
76065;SDS011;64763;48.928;8.474;2023-09-30T02:27:37;4.65;;;3.05;;
76065;SDS011;64763;48.928;8.474;2023-09-30T02:30:04;6.30;;;3.03;;
76065;SDS011;64763;48.928;8.474;2023-09-30T02:32:30;5.35;;;2.75;;
76065;SDS011;64763;48.928;8.474;2023-09-30T02:34:58;5.15;;;2.50;;
76065;SDS011;64763;48.928;8.474;2023-09-30T02:37:23;4.30;;;2.65;;
76065;SDS011;64763;48.928;8.474;2023-09-30T02:39:49;5.22;;;2.72;;
76065;SDS011;64763;48.928;8.474;2023-09-30T02:42:14;4.72;;;3.00;;
76065;SDS011;64763;48.928;8.474;2023-09-30T02:44:40;7.45;;;3.00;;
76065;SDS011;64763;48.928;8.474;2023-09-30T02:47:05;5.90;;;3.20;;
76065;SDS011;64763;48.928;8.474;2023-09-30T02:49:34;6.88;;;3.70;;
76065;SDS011;64763;48.928;8.474;2023-09-30T02:51:59;5.40;;;3.20;;
76065;SDS011;64763;48.928;8.474;2023-09-30T02:54:24;6.25;;;3.25;;
76065;SDS011;64763;48.928;8.474;2023-09-30T02:56:50;4.55;;;3.17;;
76065;SDS011;64763;48.928;8.474;2023-09-30T02:59:17;6.10;;;3.33;;
76065;SDS011;64763;48.928;8.474;2023-09-30T03:01:43;6.85;;;3.38;;
76065;SDS011;64763;48.928;8.474;2023-09-30T03:04:09;7.13;;;3.63;;
76065;SDS011;64763;48.928;8.474;2023-09-30T03:06:34;7.88;;;3.53;;
76065;SDS011;64763;48.928;8.474;2023-09-30T03:09:03;5.88;;;3.50;;
76065;SDS011;64763;48.928;8.474;2023-09-30T03:11:29;7.35;;;3.67;;
76065;SDS011;64763;48.928;8.474;2023-09-30T03:13:56;5.68;;;3.33;;
76065;SDS011;64763;48.928;8.474;2023-09-30T03:16:21;5.47;;;3.00;;
76065;SDS011;64763;48.928;8.474;2023-09-30T03:18:46;5.75;;;2.65;;
76065;SDS011;64763;48.928;8.474;2023-09-30T03:21:15;7.32;;;2.97;;
76065;SDS011;64763;48.928;8.474;2023-09-30T03:23:40;6.13;;;2.50;;
76065;SDS011;64763;48.928;8.474;2023-09-30T03:26:06;5.55;;;2.55;;
76065;SDS011;64763;48.928;8.474;2023-09-30T03:28:34;6.53;;;2.67;;
76065;SDS011;64763;48.928;8.474;2023-09-30T03:31:03;4.75;;;2.78;;
76065;SDS011;64763;48.928;8.474;2023-09-30T03:33:30;6.00;;;2.83;;
76065;SDS011;64763;48.928;8.474;2023-09-30T03:35:57;5.82;;;2.65;;
76065;SDS011;64763;48.928;8.474;2023-09-30T03:38:23;4.50;;;2.40;;
76065;SDS011;64763;48.928;8.474;2023-09-30T03:40:49;5.25;;;2.45;;
76065;SDS011;64763;48.928;8.474;2023-09-30T03:43:15;6.22;;;2.60;;
76065;SDS011;64763;48.928;8.474;2023-09-30T03:45:41;4.57;;;2.40;;
76065;SDS011;64763;48.928;8.474;2023-09-30T03:48:06;6.28;;;2.90;;
76065;SDS011;64763;48.928;8.474;2023-09-30T03:50:32;4.70;;;2.65;;
76065;SDS011;64763;48.928;8.474;2023-09-30T03:53:01;4.38;;;2.58;;
76065;SDS011;64763;48.928;8.474;2023-09-30T03:55:27;4.10;;;2.40;;
76065;SDS011;64763;48.928;8.474;2023-09-30T03:57:54;6.20;;;2.90;;
76065;SDS011;64763;48.928;8.474;2023-09-30T04:00:20;3.92;;;2.65;;
76065;SDS011;64763;48.928;8.474;2023-09-30T04:02:46;4.35;;;2.90;;
76065;SDS011;64763;48.928;8.474;2023-09-30T04:05:17;4.88;;;2.75;;
76065;SDS011;64763;48.928;8.474;2023-09-30T04:07:42;3.63;;;2.45;;
76065;SDS011;64763;48.928;8.474;2023-09-30T04:10:09;4.78;;;2.53;;
76065;SDS011;64763;48.928;8.474;2023-09-30T04:12:34;5.95;;;2.90;;
76065;SDS011;64763;48.928;8.474;2023-09-30T04:15:00;4.72;;;2.40;;
76065;SDS011;64763;48.928;8.474;2023-09-30T04:17:26;5.30;;;3.00;;
76065;SDS011;64763;48.928;8.474;2023-09-30T04:19:52;4.43;;;2.22;;
76065;SDS011;64763;48.928;8.474;2023-09-30T04:22:18;5.32;;;2.92;;
76065;SDS011;64763;48.928;8.474;2023-09-30T04:24:44;5.00;;;2.40;;
76065;SDS011;64763;48.928;8.474;2023-09-30T04:27:10;6.32;;;2.92;;
76065;SDS011;64763;48.928;8.474;2023-09-30T04:29:36;4.10;;;2.60;;
76065;SDS011;64763;48.928;8.474;2023-09-30T04:32:01;5.18;;;2.67;;
76065;SDS011;64763;48.928;8.474;2023-09-30T04:34:26;5.85;;;2.45;;
76065;SDS011;64763;48.928;8.474;2023-09-30T04:36:52;5.10;;;2.65;;
76065;SDS011;64763;48.928;8.474;2023-09-30T04:39:18;6.10;;;3.10;;
76065;SDS011;64763;48.928;8.474;2023-09-30T04:41:43;5.00;;;2.75;;
76065;SDS011;64763;48.928;8.474;2023-09-30T04:44:09;5.00;;;2.80;;
76065;SDS011;64763;48.928;8.474;2023-09-30T04:46:35;5.00;;;3.10;;
76065;SDS011;64763;48.928;8.474;2023-09-30T04:49:00;4.60;;;2.53;;
76065;SDS011;64763;48.928;8.474;2023-09-30T04:51:27;4.57;;;2.53;;
76065;SDS011;64763;48.928;8.474;2023-09-30T04:53:53;4.47;;;2.58;;
76065;SDS011;64763;48.928;8.474;2023-09-30T04:56:20;5.15;;;3.00;;
76065;SDS011;64763;48.928;8.474;2023-09-30T04:58:45;10.00;;;3.28;;
76065;SDS011;64763;48.928;8.474;2023-09-30T05:01:12;5.47;;;2.95;;
76065;SDS011;64763;48.928;8.474;2023-09-30T05:03:39;6.53;;;3.40;;
76065;SDS011;64763;48.928;8.474;2023-09-30T05:06:05;4.53;;;2.90;;
76065;SDS011;64763;48.928;8.474;2023-09-30T05:08:32;5.35;;;3.25;;
76065;SDS011;64763;48.928;8.474;2023-09-30T05:10:58;5.97;;;3.20;;
76065;SDS011;64763;48.928;8.474;2023-09-30T05:13:23;5.53;;;3.03;;
76065;SDS011;64763;48.928;8.474;2023-09-30T05:15:49;4.82;;;3.05;;
76065;SDS011;64763;48.928;8.474;2023-09-30T05:18:16;5.68;;;2.90;;
76065;SDS011;64763;48.928;8.474;2023-09-30T05:20:41;4.50;;;3.08;;
76065;SDS011;64763;48.928;8.474;2023-09-30T05:23:07;4.55;;;2.97;;
76065;SDS011;64763;48.928;8.474;2023-09-30T05:25:32;4.75;;;2.80;;
76065;SDS011;64763;48.928;8.474;2023-09-30T05:27:58;5.93;;;3.22;;
76065;SDS011;64763;48.928;8.474;2023-09-30T05:30:23;5.25;;;2.65;;
76065;SDS011;64763;48.928;8.474;2023-09-30T05:32:48;6.25;;;3.45;;
76065;SDS011;64763;48.928;8.474;2023-09-30T05:35:17;4.68;;;2.47;;
76065;SDS011;64763;48.928;8.474;2023-09-30T05:37:43;5.70;;;3.03;;
76065;SDS011;64763;48.928;8.474;2023-09-30T05:40:10;5.68;;;3.28;;
76065;SDS011;64763;48.928;8.474;2023-09-30T05:42:47;5.68;;;3.03;;
76065;SDS011;64763;48.928;8.474;2023-09-30T05:45:13;6.28;;;3.33;;
76065;SDS011;64763;48.928;8.474;2023-09-30T05:47:39;5.07;;;3.15;;
76065;SDS011;64763;48.928;8.474;2023-09-30T05:50:06;5.43;;;3.63;;
76065;SDS011;64763;48.928;8.474;2023-09-30T05:52:32;7.35;;;3.75;;
76065;SDS011;64763;48.928;8.474;2023-09-30T05:54:57;8.43;;;4.20;;
76065;SDS011;64763;48.928;8.474;2023-09-30T05:57:22;10.68;;;5.30;;
76065;SDS011;64763;48.928;8.474;2023-09-30T05:59:48;16.02;;;6.15;;
76065;SDS011;64763;48.928;8.474;2023-09-30T06:02:14;11.73;;;5.40;;
76065;SDS011;64763;48.928;8.474;2023-09-30T06:04:40;11.13;;;6.13;;
76065;SDS011;64763;48.928;8.474;2023-09-30T06:07:05;14.02;;;5.97;;
76065;SDS011;64763;48.928;8.474;2023-09-30T06:09:31;14.63;;;6.10;;
76065;SDS011;64763;48.928;8.474;2023-09-30T06:11:56;12.70;;;5.60;;
76065;SDS011;64763;48.928;8.474;2023-09-30T06:14:22;11.43;;;5.93;;
76065;SDS011;64763;48.928;8.474;2023-09-30T06:16:47;11.85;;;6.30;;
76065;SDS011;64763;48.928;8.474;2023-09-30T06:19:12;11.63;;;6.07;;
76065;SDS011;64763;48.928;8.474;2023-09-30T06:21:38;11.48;;;5.90;;
76065;SDS011;64763;48.928;8.474;2023-09-30T06:24:04;11.10;;;6.40;;
76065;SDS011;64763;48.928;8.474;2023-09-30T06:26:30;10.38;;;6.50;;
76065;SDS011;64763;48.928;8.474;2023-09-30T06:28:55;9.57;;;6.10;;
76065;SDS011;64763;48.928;8.474;2023-09-30T06:31:21;13.35;;;6.30;;
76065;SDS011;64763;48.928;8.474;2023-09-30T06:33:47;9.68;;;6.15;;
76065;SDS011;64763;48.928;8.474;2023-09-30T06:36:13;12.13;;;6.68;;
76065;SDS011;64763;48.928;8.474;2023-09-30T06:38:39;8.40;;;5.30;;
76065;SDS011;64763;48.928;8.474;2023-09-30T06:41:06;11.50;;;5.78;;
76065;SDS011;64763;48.928;8.474;2023-09-30T06:43:32;9.95;;;5.85;;
76065;SDS011;64763;48.928;8.474;2023-09-30T06:45:58;7.70;;;4.63;;
76065;SDS011;64763;48.928;8.474;2023-09-30T06:48:23;11.23;;;5.07;;
76065;SDS011;64763;48.928;8.474;2023-09-30T06:50:49;10.25;;;5.15;;
76065;SDS011;64763;48.928;8.474;2023-09-30T06:53:15;9.73;;;5.38;;
76065;SDS011;64763;48.928;8.474;2023-09-30T06:55:41;11.25;;;5.38;;
76065;SDS011;64763;48.928;8.474;2023-09-30T06:58:08;8.27;;;4.90;;
76065;SDS011;64763;48.928;8.474;2023-09-30T07:00:35;11.60;;;6.05;;
76065;SDS011;64763;48.928;8.474;2023-09-30T07:03:04;13.52;;;6.00;;
76065;SDS011;64763;48.928;8.474;2023-09-30T07:05:29;12.35;;;6.30;;
76065;SDS011;64763;48.928;8.474;2023-09-30T07:07:55;12.35;;;7.40;;
76065;SDS011;64763;48.928;8.474;2023-09-30T07:10:21;10.90;;;6.82;;
76065;SDS011;64763;48.928;8.474;2023-09-30T07:12:46;11.63;;;6.50;;
76065;SDS011;64763;48.928;8.474;2023-09-30T07:15:11;14.02;;;7.03;;
76065;SDS011;64763;48.928;8.474;2023-09-30T07:17:38;12.98;;;7.50;;
76065;SDS011;64763;48.928;8.474;2023-09-30T07:20:04;15.90;;;7.28;;
76065;SDS011;64763;48.928;8.474;2023-09-30T07:22:30;15.15;;;7.75;;
76065;SDS011;64763;48.928;8.474;2023-09-30T07:24:56;12.32;;;7.32;;
76065;SDS011;64763;48.928;8.474;2023-09-30T07:27:22;12.57;;;6.68;;
76065;SDS011;64763;48.928;8.474;2023-09-30T07:29:48;12.48;;;7.32;;
76065;SDS011;64763;48.928;8.474;2023-09-30T07:32:14;10.88;;;6.88;;
76065;SDS011;64763;48.928;8.474;2023-09-30T07:34:39;17.77;;;8.23;;
76065;SDS011;64763;48.928;8.474;2023-09-30T07:37:05;16.55;;;7.43;;
76065;SDS011;64763;48.928;8.474;2023-09-30T07:39:30;13.77;;;6.63;;
76065;SDS011;64763;48.928;8.474;2023-09-30T07:41:56;12.48;;;6.60;;
76065;SDS011;64763;48.928;8.474;2023-09-30T07:44:21;10.40;;;6.75;;
76065;SDS011;64763;48.928;8.474;2023-09-30T07:46:47;14.35;;;7.15;;
76065;SDS011;64763;48.928;8.474;2023-09-30T07:49:12;13.63;;;7.63;;
76065;SDS011;64763;48.928;8.474;2023-09-30T07:51:37;15.43;;;7.38;;
76065;SDS011;64763;48.928;8.474;2023-09-30T07:54:04;14.63;;;6.57;;
76065;SDS011;64763;48.928;8.474;2023-09-30T07:56:30;9.90;;;6.00;;
76065;SDS011;64763;48.928;8.474;2023-09-30T07:58:55;10.68;;;7.00;;
76065;SDS011;64763;48.928;8.474;2023-09-30T08:01:21;10.07;;;6.20;;
76065;SDS011;64763;48.928;8.474;2023-09-30T08:03:46;18.88;;;7.13;;
76065;SDS011;64763;48.928;8.474;2023-09-30T08:06:12;10.88;;;6.50;;
76065;SDS011;64763;48.928;8.474;2023-09-30T08:08:37;11.80;;;6.25;;
76065;SDS011;64763;48.928;8.474;2023-09-30T08:11:03;10.27;;;6.43;;
76065;SDS011;64763;48.928;8.474;2023-09-30T08:13:29;15.80;;;7.50;;
76065;SDS011;64763;48.928;8.474;2023-09-30T08:15:57;12.07;;;6.38;;
76065;SDS011;64763;48.928;8.474;2023-09-30T08:18:22;12.85;;;5.88;;
76065;SDS011;64763;48.928;8.474;2023-09-30T08:20:48;13.18;;;6.30;;
76065;SDS011;64763;48.928;8.474;2023-09-30T08:23:14;10.02;;;6.43;;
76065;SDS011;64763;48.928;8.474;2023-09-30T08:25:39;12.20;;;6.57;;
76065;SDS011;64763;48.928;8.474;2023-09-30T08:28:05;10.13;;;5.78;;
76065;SDS011;64763;48.928;8.474;2023-09-30T08:30:30;13.70;;;6.53;;
76065;SDS011;64763;48.928;8.474;2023-09-30T08:32:56;9.70;;;6.13;;
76065;SDS011;64763;48.928;8.474;2023-09-30T08:35:21;12.65;;;6.55;;
76065;SDS011;64763;48.928;8.474;2023-09-30T08:37:46;11.23;;;6.03;;
76065;SDS011;64763;48.928;8.474;2023-09-30T08:40:14;14.43;;;7.40;;
76065;SDS011;64763;48.928;8.474;2023-09-30T08:42:45;13.95;;;6.32;;
76065;SDS011;64763;48.928;8.474;2023-09-30T08:45:12;11.57;;;5.50;;
76065;SDS011;64763;48.928;8.474;2023-09-30T08:47:39;9.23;;;5.63;;
76065;SDS011;64763;48.928;8.474;2023-09-30T08:50:05;9.50;;;5.32;;
76065;SDS011;64763;48.928;8.474;2023-09-30T08:52:34;8.80;;;4.57;;
76065;SDS011;64763;48.928;8.474;2023-09-30T08:55:00;9.18;;;5.22;;
76065;SDS011;64763;48.928;8.474;2023-09-30T08:57:26;8.70;;;4.40;;
76065;SDS011;64763;48.928;8.474;2023-09-30T08:59:52;10.93;;;5.38;;
76065;SDS011;64763;48.928;8.474;2023-09-30T09:02:18;10.35;;;5.38;;
76065;SDS011;64763;48.928;8.474;2023-09-30T09:04:47;9.35;;;4.68;;
76065;SDS011;64763;48.928;8.474;2023-09-30T09:07:12;6.97;;;3.72;;
76065;SDS011;64763;48.928;8.474;2023-09-30T09:09:38;7.07;;;4.03;;
76065;SDS011;64763;48.928;8.474;2023-09-30T09:12:03;6.85;;;4.13;;
76065;SDS011;64763;48.928;8.474;2023-09-30T09:14:38;6.80;;;3.97;;
76065;SDS011;64763;48.928;8.474;2023-09-30T09:17:06;7.68;;;3.78;;
76065;SDS011;64763;48.928;8.474;2023-09-30T09:19:32;7.57;;;3.90;;
76065;SDS011;64763;48.928;8.474;2023-09-30T09:21:58;6.43;;;3.55;;
76065;SDS011;64763;48.928;8.474;2023-09-30T09:27:09;6.03;;;3.05;;
76065;SDS011;64763;48.928;8.474;2023-09-30T09:29:36;6.32;;;3.63;;
76065;SDS011;64763;48.928;8.474;2023-09-30T09:32:12;11.27;;;3.35;;
76065;SDS011;64763;48.928;8.474;2023-09-30T09:34:41;5.30;;;3.50;;
76065;SDS011;64763;48.928;8.474;2023-09-30T09:37:18;5.22;;;2.65;;
76065;SDS011;64763;48.928;8.474;2023-09-30T09:39:53;7.93;;;3.40;;
76065;SDS011;64763;48.928;8.474;2023-09-30T09:42:27;9.65;;;3.67;;
76065;SDS011;64763;48.928;8.474;2023-09-30T09:44:57;5.43;;;3.22;;
76065;SDS011;64763;48.928;8.474;2023-09-30T09:47:27;6.95;;;3.30;;
76065;SDS011;64763;48.928;8.474;2023-09-30T09:49:54;8.30;;;3.88;;
76065;SDS011;64763;48.928;8.474;2023-09-30T09:52:22;8.80;;;3.60;;
76065;SDS011;64763;48.928;8.474;2023-09-30T09:54:48;7.65;;;3.25;;
76065;SDS011;64763;48.928;8.474;2023-09-30T09:57:15;7.38;;;3.28;;
76065;SDS011;64763;48.928;8.474;2023-09-30T09:59:43;6.43;;;3.50;;
76065;SDS011;64763;48.928;8.474;2023-09-30T10:02:12;7.68;;;3.17;;
76065;SDS011;64763;48.928;8.474;2023-09-30T10:04:39;6.07;;;3.38;;
76065;SDS011;64763;48.928;8.474;2023-09-30T10:07:07;6.13;;;3.53;;
76065;SDS011;64763;48.928;8.474;2023-09-30T10:09:36;8.18;;;3.58;;
76065;SDS011;64763;48.928;8.474;2023-09-30T10:12:02;7.32;;;3.53;;
76065;SDS011;64763;48.928;8.474;2023-09-30T10:14:32;8.23;;;3.60;;
76065;SDS011;64763;48.928;8.474;2023-09-30T10:16:58;8.07;;;3.15;;
76065;SDS011;64763;48.928;8.474;2023-09-30T10:19:23;9.38;;;3.33;;
76065;SDS011;64763;48.928;8.474;2023-09-30T10:24:43;7.32;;;3.17;;
76065;SDS011;64763;48.928;8.474;2023-09-30T10:37:52;7.53;;;3.25;;
76065;SDS011;64763;48.928;8.474;2023-09-30T10:40:50;7.70;;;3.13;;
76065;SDS011;64763;48.928;8.474;2023-09-30T10:43:32;7.30;;;3.10;;
76065;SDS011;64763;48.928;8.474;2023-09-30T10:46:01;7.40;;;3.97;;
76065;SDS011;64763;48.928;8.474;2023-09-30T10:51:11;7.28;;;3.35;;
76065;SDS011;64763;48.928;8.474;2023-09-30T10:53:41;6.03;;;3.58;;
76065;SDS011;64763;48.928;8.474;2023-09-30T10:56:08;6.30;;;3.88;;
76065;SDS011;64763;48.928;8.474;2023-09-30T10:58:38;6.50;;;3.45;;
76065;SDS011;64763;48.928;8.474;2023-09-30T11:01:07;7.35;;;3.60;;
76065;SDS011;64763;48.928;8.474;2023-09-30T11:03:33;8.20;;;3.92;;
76065;SDS011;64763;48.928;8.474;2023-09-30T11:05:58;8.43;;;3.78;;
76065;SDS011;64763;48.928;8.474;2023-09-30T11:08:24;7.18;;;3.58;;
76065;SDS011;64763;48.928;8.474;2023-09-30T11:10:54;5.88;;;3.22;;
76065;SDS011;64763;48.928;8.474;2023-09-30T11:13:20;6.10;;;3.13;;
76065;SDS011;64763;48.928;8.474;2023-09-30T11:15:46;6.85;;;3.22;;
76065;SDS011;64763;48.928;8.474;2023-09-30T11:18:15;9.02;;;3.67;;
76065;SDS011;64763;48.928;8.474;2023-09-30T11:20:42;8.10;;;3.65;;
76065;SDS011;64763;48.928;8.474;2023-09-30T11:23:08;6.53;;;3.35;;
76065;SDS011;64763;48.928;8.474;2023-09-30T11:25:37;7.47;;;3.22;;
76065;SDS011;64763;48.928;8.474;2023-09-30T11:28:17;10.02;;;3.53;;
76065;SDS011;64763;48.928;8.474;2023-09-30T11:30:59;10.10;;;3.67;;
76065;SDS011;64763;48.928;8.474;2023-09-30T11:33:25;6.13;;;3.15;;
76065;SDS011;64763;48.928;8.474;2023-09-30T11:36:04;6.32;;;3.20;;
76065;SDS011;64763;48.928;8.474;2023-09-30T11:38:34;7.38;;;3.80;;
76065;SDS011;64763;48.928;8.474;2023-09-30T11:41:00;7.57;;;3.30;;
76065;SDS011;64763;48.928;8.474;2023-09-30T11:43:30;7.53;;;2.80;;
76065;SDS011;64763;48.928;8.474;2023-09-30T11:48:33;6.57;;;3.28;;
76065;SDS011;64763;48.928;8.474;2023-09-30T11:51:00;6.55;;;3.42;;
76065;SDS011;64763;48.928;8.474;2023-09-30T11:53:28;7.40;;;3.92;;
76065;SDS011;64763;48.928;8.474;2023-09-30T11:55:55;7.00;;;3.35;;
76065;SDS011;64763;48.928;8.474;2023-09-30T11:58:22;9.45;;;4.03;;
76065;SDS011;64763;48.928;8.474;2023-09-30T12:00:48;7.25;;;3.35;;
76065;SDS011;64763;48.928;8.474;2023-09-30T12:03:15;7.57;;;3.53;;
76065;SDS011;64763;48.928;8.474;2023-09-30T12:05:41;7.22;;;2.95;;
76065;SDS011;64763;48.928;8.474;2023-09-30T12:08:06;7.55;;;3.60;;
76065;SDS011;64763;48.928;8.474;2023-09-30T12:10:32;7.50;;;3.30;;
76065;SDS011;64763;48.928;8.474;2023-09-30T12:12:57;8.02;;;3.55;;
76065;SDS011;64763;48.928;8.474;2023-09-30T12:15:23;10.55;;;3.53;;
76065;SDS011;64763;48.928;8.474;2023-09-30T12:17:48;9.32;;;3.33;;
76065;SDS011;64763;48.928;8.474;2023-09-30T12:20:14;8.23;;;3.92;;
76065;SDS011;64763;48.928;8.474;2023-09-30T12:22:41;8.27;;;3.83;;
76065;SDS011;64763;48.928;8.474;2023-09-30T12:25:06;8.25;;;3.85;;
76065;SDS011;64763;48.928;8.474;2023-09-30T12:27:33;6.82;;;3.38;;
76065;SDS011;64763;48.928;8.474;2023-09-30T12:29:59;7.88;;;4.15;;
76065;SDS011;64763;48.928;8.474;2023-09-30T12:32:24;7.18;;;3.47;;
76065;SDS011;64763;48.928;8.474;2023-09-30T12:34:51;6.72;;;3.40;;
76065;SDS011;64763;48.928;8.474;2023-09-30T12:37:17;7.15;;;3.50;;
76065;SDS011;64763;48.928;8.474;2023-09-30T12:39:43;7.43;;;3.35;;
76065;SDS011;64763;48.928;8.474;2023-09-30T12:42:10;8.32;;;3.40;;
76065;SDS011;64763;48.928;8.474;2023-09-30T12:44:37;8.23;;;3.60;;
76065;SDS011;64763;48.928;8.474;2023-09-30T12:47:03;7.88;;;3.50;;
76065;SDS011;64763;48.928;8.474;2023-09-30T12:49:30;7.78;;;3.45;;
76065;SDS011;64763;48.928;8.474;2023-09-30T12:51:55;9.20;;;3.88;;
76065;SDS011;64763;48.928;8.474;2023-09-30T12:54:22;10.40;;;4.35;;
76065;SDS011;64763;48.928;8.474;2023-09-30T12:56:48;6.97;;;3.80;;
76065;SDS011;64763;48.928;8.474;2023-09-30T12:59:15;6.22;;;3.50;;
76065;SDS011;64763;48.928;8.474;2023-09-30T13:01:42;9.45;;;3.65;;
76065;SDS011;64763;48.928;8.474;2023-09-30T13:04:08;8.63;;;3.92;;
76065;SDS011;64763;48.928;8.474;2023-09-30T13:06:33;9.88;;;4.05;;
76065;SDS011;64763;48.928;8.474;2023-09-30T13:09:00;8.95;;;3.60;;
76065;SDS011;64763;48.928;8.474;2023-09-30T13:11:26;7.70;;;3.38;;
76065;SDS011;64763;48.928;8.474;2023-09-30T13:13:51;7.32;;;3.53;;
76065;SDS011;64763;48.928;8.474;2023-09-30T13:16:17;9.15;;;4.30;;
76065;SDS011;64763;48.928;8.474;2023-09-30T13:18:47;8.55;;;3.85;;
76065;SDS011;64763;48.928;8.474;2023-09-30T13:21:12;8.60;;;4.13;;
76065;SDS011;64763;48.928;8.474;2023-09-30T13:23:38;8.10;;;3.35;;
76065;SDS011;64763;48.928;8.474;2023-09-30T13:26:03;10.55;;;4.20;;
76065;SDS011;64763;48.928;8.474;2023-09-30T13:28:29;8.63;;;3.83;;
76065;SDS011;64763;48.928;8.474;2023-09-30T13:30:54;6.80;;;3.50;;
76065;SDS011;64763;48.928;8.474;2023-09-30T13:33:20;8.23;;;3.63;;
76065;SDS011;64763;48.928;8.474;2023-09-30T13:35:46;8.30;;;3.83;;
76065;SDS011;64763;48.928;8.474;2023-09-30T13:38:12;8.75;;;4.25;;
76065;SDS011;64763;48.928;8.474;2023-09-30T13:40:37;6.30;;;3.15;;
76065;SDS011;64763;48.928;8.474;2023-09-30T13:43:06;8.15;;;3.42;;
76065;SDS011;64763;48.928;8.474;2023-09-30T13:45:31;9.20;;;4.18;;
76065;SDS011;64763;48.928;8.474;2023-09-30T13:47:56;10.63;;;3.85;;
76065;SDS011;64763;48.928;8.474;2023-09-30T13:50:24;8.43;;;3.58;;
76065;SDS011;64763;48.928;8.474;2023-09-30T13:52:49;9.05;;;4.22;;
76065;SDS011;64763;48.928;8.474;2023-09-30T13:55:18;8.50;;;4.25;;
76065;SDS011;64763;48.928;8.474;2023-09-30T13:57:47;8.18;;;3.67;;
76065;SDS011;64763;48.928;8.474;2023-09-30T14:00:13;6.95;;;3.10;;
76065;SDS011;64763;48.928;8.474;2023-09-30T14:02:40;7.85;;;3.65;;
76065;SDS011;64763;48.928;8.474;2023-09-30T14:05:05;10.52;;;3.67;;
76065;SDS011;64763;48.928;8.474;2023-09-30T14:07:33;7.65;;;3.40;;
76065;SDS011;64763;48.928;8.474;2023-09-30T14:09:59;9.80;;;4.00;;
76065;SDS011;64763;48.928;8.474;2023-09-30T14:12:24;10.00;;;4.07;;
76065;SDS011;64763;48.928;8.474;2023-09-30T14:14:50;7.65;;;3.50;;
76065;SDS011;64763;48.928;8.474;2023-09-30T14:17:16;7.32;;;3.15;;
76065;SDS011;64763;48.928;8.474;2023-09-30T14:19:45;6.32;;;3.47;;
76065;SDS011;64763;48.928;8.474;2023-09-30T14:22:10;7.40;;;3.50;;
76065;SDS011;64763;48.928;8.474;2023-09-30T14:24:37;7.57;;;3.35;;
76065;SDS011;64763;48.928;8.474;2023-09-30T14:27:02;9.10;;;3.85;;
76065;SDS011;64763;48.928;8.474;2023-09-30T14:29:28;7.65;;;3.72;;
76065;SDS011;64763;48.928;8.474;2023-09-30T14:31:53;7.53;;;3.50;;
76065;SDS011;64763;48.928;8.474;2023-09-30T14:34:19;7.15;;;3.25;;
76065;SDS011;64763;48.928;8.474;2023-09-30T14:36:44;9.20;;;3.80;;
76065;SDS011;64763;48.928;8.474;2023-09-30T14:39:10;9.23;;;3.92;;
76065;SDS011;64763;48.928;8.474;2023-09-30T14:41:36;8.68;;;3.88;;
76065;SDS011;64763;48.928;8.474;2023-09-30T14:44:01;9.13;;;4.15;;
76065;SDS011;64763;48.928;8.474;2023-09-30T14:46:28;6.57;;;3.35;;
76065;SDS011;64763;48.928;8.474;2023-09-30T14:48:54;9.05;;;3.55;;
76065;SDS011;64763;48.928;8.474;2023-09-30T14:51:22;8.02;;;3.45;;
76065;SDS011;64763;48.928;8.474;2023-09-30T14:53:48;9.05;;;4.03;;
76065;SDS011;64763;48.928;8.474;2023-09-30T14:56:14;11.07;;;4.35;;
76065;SDS011;64763;48.928;8.474;2023-09-30T14:58:43;7.65;;;3.83;;
76065;SDS011;64763;48.928;8.474;2023-09-30T15:01:09;10.25;;;4.15;;
76065;SDS011;64763;48.928;8.474;2023-09-30T15:03:34;9.65;;;4.13;;